Time;durP1;ratioP1;P1;durP2;ratioP2;P2;SDS_P1;SDS_P2;PMS_P1;PMS_P2;Temp;Humidity;BMP_temperature;BMP_pressure;BME280_temperature;BME280_humidity;BME280_pressure;Samples;Min_cycle;Max_cycle;Signal;HPM_P1;HPM_P2
2023/06/30 00:00:57;;;;;;;4.60;4.30;;;;;;;22.91;61.56;99436.28;5032853;28;20297;-66
2023/06/30 00:03:24;;;;;;;5.00;4.57;;;;;;;22.72;61.57;99438.00;5032632;28;20199;-66
2023/06/30 00:05:51;;;;;;;5.33;4.87;;;;;;;22.48;62.29;99441.56;5032701;28;20194;-66
2023/06/30 00:08:17;;;;;;;7.33;5.13;;;;;;;22.24;63.22;99441.31;5032507;28;20398;-66
2023/06/30 00:10:44;;;;;;;5.63;5.13;;;;;;;22.02;64.33;99431.88;5031531;28;20194;-66
2023/06/30 00:13:11;;;;;;;5.13;4.63;;;;;;;21.82;64.94;99437.28;5031930;28;20627;-66
2023/06/30 00:15:39;;;;;;;4.20;4.00;;;;;;;21.47;66.52;99440.72;5032491;28;20275;-66
2023/06/30 00:18:06;;;;;;;5.60;4.40;;;;;;;21.03;68.71;99434.09;5032446;28;20276;-66
2023/06/30 00:20:33;;;;;;;4.37;4.10;;;;;;;20.86;69.45;99433.47;5032496;28;20197;-66
2023/06/30 00:23:00;;;;;;;5.17;3.97;;;;;;;20.84;69.81;99434.81;5032389;28;20197;-65
2023/06/30 00:25:27;;;;;;;4.30;3.90;;;;;;;20.84;70.39;99429.41;5032421;28;20557;-65
2023/06/30 00:27:53;;;;;;;4.37;4.07;;;;;;;20.99;71.36;99424.09;5032348;28;20255;-65
2023/06/30 00:30:20;;;;;;;5.90;4.00;;;;;;;21.18;71.11;99433.34;5031820;28;20248;-66
2023/06/30 00:32:48;;;;;;;4.37;4.07;;;;;;;21.37;70.32;99423.66;5031941;28;20193;-66
2023/06/30 00:35:15;;;;;;;4.30;4.07;;;;;;;21.34;68.91;99425.03;5031272;28;20189;-65
2023/06/30 00:37:41;;;;;;;4.27;4.07;;;;;;;21.24;69.70;99437.69;5031872;28;20201;-65
2023/06/30 00:40:09;;;;;;;4.57;4.27;;;;;;;21.24;69.35;99433.13;5031393;28;20205;-65
2023/06/30 00:42:35;;;;;;;5.80;4.03;;;;;;;21.17;70.87;99434.41;5031337;28;20196;-65
2023/06/30 00:45:02;;;;;;;4.97;4.67;;;;;;;21.34;68.84;99435.81;5032011;28;20664;-66
2023/06/30 00:47:29;;;;;;;4.10;3.90;;;;;;;21.49;69.83;99441.28;5031733;28;20224;-66
2023/06/30 00:49:57;;;;;;;4.30;3.90;;;;;;;21.65;68.57;99431.28;5031212;28;20263;-65
2023/06/30 00:52:24;;;;;;;4.47;4.07;;;;;;;21.71;67.85;99447.28;5031701;28;20746;-66
2023/06/30 00:54:51;;;;;;;4.80;4.30;;;;;;;21.88;66.96;99442.41;5032355;28;20580;-66
2023/06/30 00:57:18;;;;;;;4.90;4.50;;;;;;;21.98;66.68;99438.91;5032017;28;20278;-66
2023/06/30 00:59:45;;;;;;;4.37;4.03;;;;;;;21.98;67.11;99436.19;5031769;28;20197;-66
2023/06/30 01:02:17;;;;;;;6.00;4.47;;;;;;;22.11;66.86;99431.06;5031707;28;20658;-66
2023/06/30 01:04:53;;;;;;;4.40;4.10;;;;;;;22.26;66.41;99436.44;5031923;28;20186;-66
2023/06/30 01:07:28;;;;;;;4.70;4.40;;;;;;;22.41;65.17;99431.00;5032044;28;20200;-65
2023/06/30 01:09:59;;;;;;;4.37;4.17;;;;;;;22.51;64.13;99438.31;5032091;28;20213;-65
2023/06/30 01:12:27;;;;;;;8.23;4.77;;;;;;;22.53;64.50;99434.25;5031040;28;20181;-66
2023/06/30 01:14:55;;;;;;;5.10;4.60;;;;;;;22.51;63.98;99436.44;5031881;28;20231;-66
2023/06/30 01:17:24;;;;;;;8.87;4.70;;;;;;;22.46;63.53;99439.13;5031427;28;20735;-66
2023/06/30 01:19:53;;;;;;;4.73;4.43;;;;;;;22.29;63.78;99438.59;5030851;28;20197;-65
2023/06/30 01:22:25;;;;;;;7.53;4.50;;;;;;;22.20;63.96;99440.25;5031770;28;20198;-66
2023/06/30 01:24:56;;;;;;;4.73;4.33;;;;;;;22.03;66.04;99428.06;5031801;28;20187;-66
2023/06/30 01:27:23;;;;;;;5.53;5.13;;;;;;;21.87;65.29;99435.38;5031817;28;20189;-66
2023/06/30 01:29:51;;;;;;;5.27;4.97;;;;;;;21.75;66.02;99432.13;5031610;28;20228;-66
2023/06/30 01:32:18;;;;;;;5.50;5.20;;;;;;;21.74;66.45;99429.69;5031776;28;20299;-66
2023/06/30 01:34:45;;;;;;;5.70;5.10;;;;;;;21.66;66.29;99433.72;5030480;28;20221;-66
2023/06/30 01:37:12;;;;;;;5.67;4.80;;;;;;;21.51;68.60;99427.50;5031394;28;20197;-66
2023/06/30 01:39:41;;;;;;;5.03;4.70;;;;;;;21.49;66.64;99426.94;5031579;28;20198;-65
2023/06/30 01:42:08;;;;;;;5.77;5.10;;;;;;;21.40;67.65;99423.94;5031477;28;20189;-65
2023/06/30 01:44:37;;;;;;;5.37;4.80;;;;;;;21.50;67.55;99418.56;5031510;28;20197;-65
2023/06/30 01:47:05;;;;;;;4.93;4.53;;;;;;;21.52;68.02;99421.78;5031293;28;20194;-66
2023/06/30 01:49:33;;;;;;;5.00;4.60;;;;;;;21.68;66.64;99420.72;5031387;28;20309;-66
2023/06/30 01:52:00;;;;;;;6.27;5.07;;;;;;;21.73;66.82;99423.50;5031575;28;20255;-66
2023/06/30 01:54:27;;;;;;;5.27;4.87;;;;;;;21.85;65.95;99418.59;5031979;28;20271;-66
2023/06/30 01:56:55;;;;;;;8.40;5.47;;;;;;;21.94;65.62;99427.00;5034853;28;20220;-66
2023/06/30 01:59:22;;;;;;;9.53;5.20;;;;;;;21.81;65.99;99404.00;5033518;28;20213;-66
2023/06/30 02:01:48;;;;;;;10.23;5.80;;;;;;;21.92;65.73;99432.69;5035063;28;20190;-64
2023/06/30 02:04:16;;;;;;;5.40;4.90;;;;;;;21.93;65.38;99425.38;5034889;28;20196;-65
2023/06/30 02:06:43;;;;;;;5.40;4.90;;;;;;;21.89;66.47;99427.81;5034134;28;20248;-65
2023/06/30 02:09:11;;;;;;;9.23;4.80;;;;;;;21.88;67.06;99426.19;5034416;28;20222;-65
2023/06/30 02:11:38;;;;;;;4.97;4.50;;;;;;;21.98;66.84;99442.44;5034862;28;20280;-64
2023/06/30 02:14:06;;;;;;;7.63;4.83;;;;;;;22.00;66.32;99429.44;5034814;28;20197;-65
2023/06/30 02:16:33;;;;;;;4.73;4.43;;;;;;;21.99;67.10;99427.00;5034458;28;20657;-65
2023/06/30 02:19:00;;;;;;;7.63;5.00;;;;;;;22.12;65.17;99429.13;5034623;28;20198;-64
2023/06/30 02:21:26;;;;;;;5.10;4.63;;;;;;;22.14;65.69;99430.50;5034213;28;20193;-66
2023/06/30 02:23:53;;;;;;;5.27;4.60;;;;;;;22.07;66.22;99429.97;5033616;28;20228;-65
2023/06/30 02:26:20;;;;;;;6.97;4.53;;;;;;;22.08;64.97;99428.06;5033959;28;20753;-65
2023/06/30 02:28:46;;;;;;;5.30;5.00;;;;;;;22.06;64.60;99428.34;5034390;28;20193;-65
2023/06/30 02:31:15;;;;;;;5.03;4.60;;;;;;;22.08;66.18;99437.00;5033521;28;20221;-65
2023/06/30 02:33:42;;;;;;;4.87;4.47;;;;;;;22.09;64.66;99432.41;5034566;28;20247;-66
2023/06/30 02:36:08;;;;;;;4.90;4.53;;;;;;;22.02;65.01;99431.88;5034513;28;20199;-66
2023/06/30 02:38:35;;;;;;;5.13;4.63;;;;;;;22.01;65.08;99432.97;5033988;28;20257;-65
2023/06/30 02:41:02;;;;;;;5.73;5.17;;;;;;;21.98;65.32;99434.31;5034365;28;20193;-66
2023/06/30 02:43:28;;;;;;;8.27;4.90;;;;;;;21.95;65.86;99439.44;5034214;28;20194;-66
2023/06/30 02:45:55;;;;;;;10.80;4.80;;;;;;;21.97;66.07;99445.41;5034154;28;20194;-66
2023/06/30 02:48:23;;;;;;;9.70;5.20;;;;;;;21.93;66.11;99445.09;5033370;28;20193;-66
2023/06/30 02:50:50;;;;;;;5.17;4.87;;;;;;;21.95;65.50;99447.56;5033670;28;20310;-65
2023/06/30 02:53:16;;;;;;;4.83;4.43;;;;;;;22.01;66.31;99444.56;5033776;28;20280;-65
2023/06/30 02:55:43;;;;;;;5.50;4.97;;;;;;;22.10;65.46;99445.66;5032484;28;20236;-65
2023/06/30 02:58:10;;;;;;;5.87;4.53;;;;;;;22.17;65.09;99451.59;5033565;28;20201;-65
2023/06/30 03:00:37;;;;;;;8.40;4.93;;;;;;;22.07;65.49;99454.31;5033505;28;20194;-65
2023/06/30 03:03:04;;;;;;;8.93;4.90;;;;;;;22.03;65.25;99450.53;5033207;28;20566;-65
2023/06/30 03:05:34;;;;;;;8.50;5.40;;;;;;;21.97;66.56;99453.50;5032553;28;20685;-67
2023/06/30 03:08:00;;;;;;;18.90;6.17;;;;;;;21.99;65.48;99451.34;5033113;28;20255;-66
2023/06/30 03:10:27;;;;;;;26.73;6.63;;;;;;;21.95;66.17;99447.56;5033197;28;20283;-66
2023/06/30 03:12:54;;;;;;;10.90;5.50;;;;;;;21.88;66.86;99442.41;5032039;28;20224;-66
2023/06/30 03:15:20;;;;;;;5.07;4.67;;;;;;;22.10;66.98;99448.38;5032485;28;20194;-66
2023/06/30 03:17:47;;;;;;;5.50;5.00;;;;;;;22.41;65.58;99454.56;5033199;28;20252;-66
2023/06/30 03:20:14;;;;;;;9.50;5.20;;;;;;;22.74;62.92;99452.06;5033002;28;20197;-66
2023/06/30 03:22:42;;;;;;;10.77;5.13;;;;;;;22.91;62.82;99452.53;5032862;28;20195;-66
2023/06/30 03:25:10;;;;;;;5.93;5.20;;;;;;;22.96;61.16;99449.00;5033028;28;20195;-66
2023/06/30 03:27:36;;;;;;;4.40;4.00;;;;;;;23.00;61.53;99450.91;5030503;28;20186;-66
2023/06/30 03:30:04;;;;;;;5.43;4.80;;;;;;;22.99;59.75;99456.59;5032885;28;20214;-66
2023/06/30 03:32:31;;;;;;;22.73;6.43;;;;;;;22.87;60.36;99451.47;5032954;28;20222;-66
2023/06/30 03:34:57;;;;;;;4.83;4.50;;;;;;;22.68;61.22;99442.34;5032515;28;20223;-66
2023/06/30 03:37:24;;;;;;;5.30;4.80;;;;;;;22.63;61.31;99453.19;5032501;28;20607;-65
2023/06/30 03:39:52;;;;;;;5.33;4.87;;;;;;;22.50;61.53;99456.44;5031354;28;20701;-66
2023/06/30 03:42:19;;;;;;;12.10;6.00;;;;;;;22.45;62.74;99448.31;5031805;28;20223;-66
2023/06/30 03:44:45;;;;;;;7.27;4.40;;;;;;;22.47;62.14;99443.50;5031664;28;20671;-65
2023/06/30 03:47:12;;;;;;;10.83;5.53;;;;;;;22.61;61.23;99452.66;5032333;28;20728;-65
2023/06/30 03:49:39;;;;;;;5.10;4.80;;;;;;;22.64;62.10;99440.44;5032344;28;20590;-66
2023/06/30 03:52:06;;;;;;;5.27;4.43;;;;;;;22.74;62.27;99445.84;5032659;28;20589;-66
2023/06/30 03:54:33;;;;;;;5.60;5.10;;;;;;;22.76;60.43;99444.50;5032451;28;20260;-66
2023/06/30 03:57:01;;;;;;;5.00;4.57;;;;;;;22.80;61.22;99450.16;5032096;28;20191;-66
2023/06/30 03:59:28;;;;;;;5.53;5.03;;;;;;;22.65;61.05;99453.72;5032367;28;20193;-66
2023/06/30 04:01:54;;;;;;;7.10;4.57;;;;;;;22.51;61.06;99447.28;5032239;28;20263;-66
2023/06/30 04:04:21;;;;;;;8.37;5.37;;;;;;;22.44;61.22;99448.59;5031356;28;20225;-66
2023/06/30 04:06:48;;;;;;;7.70;5.77;;;;;;;23.10;59.63;99450.03;5031752;28;20194;-66
2023/06/30 04:09:15;;;;;;;7.03;4.73;;;;;;;23.85;57.03;99453.13;5031845;28;20604;-66
2023/06/30 04:11:41;;;;;;;4.80;4.43;;;;;;;24.71;54.50;99451.28;5032042;28;20195;-66
2023/06/30 04:14:09;;;;;;;6.70;4.37;;;;;;;25.63;50.80;99458.00;5032135;28;20196;-66
2023/06/30 04:16:36;;;;;;;4.70;4.13;;;;;;;26.31;48.55;99464.56;5031853;28;20226;-67
2023/06/30 04:19:03;;;;;;;4.73;4.33;;;;;;;26.71;47.36;99463.03;5031611;28;20242;-66
2023/06/30 04:21:29;;;;;;;6.13;4.60;;;;;;;27.36;45.12;99467.19;5031706;28;20239;-66
2023/06/30 04:23:56;;;;;;;5.67;4.00;;;;;;;27.91;43.61;99465.91;5031725;28;20243;-67
2023/06/30 04:26:23;;;;;;;5.80;3.87;;;;;;;28.51;41.87;99470.69;5031201;28;20193;-67
2023/06/30 04:28:49;;;;;;;5.63;3.90;;;;;;;28.98;40.26;99463.66;5031383;28;20279;-64
2023/06/30 04:31:18;;;;;;;5.80;4.53;;;;;;;29.28;39.99;99471.03;5031384;28;20224;-67
2023/06/30 04:33:44;;;;;;;4.50;4.10;;;;;;;29.73;38.99;99468.84;5031452;28;20239;-66
2023/06/30 04:36:11;;;;;;;4.50;4.10;;;;;;;30.24;38.08;99468.84;5031485;28;20557;-67
2023/06/30 04:38:38;;;;;;;6.57;4.60;;;;;;;30.36;37.35;99466.22;5031877;28;20193;-66
2023/06/30 04:41:04;;;;;;;4.97;4.30;;;;;;;30.36;37.08;99474.44;5031494;28;20259;-66
2023/06/30 04:43:31;;;;;;;8.33;4.30;;;;;;;30.59;37.63;99465.69;5031732;28;20201;-66
2023/06/30 04:45:58;;;;;;;12.77;4.20;;;;;;;30.79;36.93;99477.91;5031218;28;20276;-66
2023/06/30 04:48:26;;;;;;;5.20;4.70;;;;;;;31.18;35.13;99481.13;5031568;28;20185;-67
2023/06/30 04:50:53;;;;;;;5.00;3.80;;;;;;;31.16;36.22;99479.84;5031076;28;20236;-66
2023/06/30 04:53:19;;;;;;;10.97;4.63;;;;;;;31.32;35.95;99457.00;5030479;28;20641;-66
2023/06/30 04:55:46;;;;;;;10.23;3.70;;;;;;;32.04;34.64;99479.41;5028929;28;20201;-66
2023/06/30 04:58:13;;;;;;;13.37;4.63;;;;;;;32.45;33.44;99476.59;5031678;28;20215;-65
2023/06/30 05:00:40;;;;;;;4.97;3.73;;;;;;;32.15;34.10;99475.13;5031287;28;20193;-66
2023/06/30 05:03:07;;;;;;;12.37;3.93;;;;;;;32.36;34.70;99473.16;5032000;28;20251;-64
2023/06/30 05:05:35;;;;;;;3.67;3.47;;;;;;;33.20;32.39;99476.00;5031429;28;20216;-64
2023/06/30 05:08:02;;;;;;;3.50;3.30;;;;;;;33.27;32.22;99476.25;5032033;28;20201;-63
2023/06/30 05:10:28;;;;;;;4.17;3.80;;;;;;;33.52;31.90;99474.31;5031710;28;20294;-62
2023/06/30 05:12:55;;;;;;;18.77;4.03;;;;;;;33.33;32.41;99469.38;5030659;28;20189;-62
2023/06/30 05:15:22;;;;;;;6.90;3.80;;;;;;;33.33;32.23;99472.13;5030766;28;20680;-63
2023/06/30 05:17:48;;;;;;;5.10;3.80;;;;;;;33.56;31.96;99477.16;5031017;28;20275;-63
2023/06/30 05:20:15;;;;;;;23.27;5.73;;;;;;;33.92;31.19;99472.38;5031117;28;20197;-63
2023/06/30 05:22:43;;;;;;;7.47;3.00;;;;;;;33.58;33.39;99472.09;5031143;28;20252;-64
2023/06/30 05:25:10;;;;;;;6.43;3.33;;;;;;;33.57;32.76;99464.97;5030990;28;20256;-64
2023/06/30 05:27:36;;;;;;;3.33;3.03;;;;;;;33.82;32.24;99472.06;5030888;28;20736;-63
2023/06/30 05:30:04;;;;;;;5.63;3.15;;;;;;;34.00;31.55;99468.66;5034048;28;20229;-64
2023/06/30 05:32:30;;;;;;;3.13;2.83;;;;;;;34.28;31.12;99468.66;5034974;28;20233;-64
2023/06/30 05:34:57;;;;;;;3.40;3.10;;;;;;;34.46;30.25;99472.72;5034500;28;20193;-71
2023/06/30 05:37:24;;;;;;;23.15;4.43;;;;;;;34.38;30.51;99473.69;5034551;28;20709;-68
2023/06/30 05:39:52;;;;;;;3.25;2.80;;;;;;;34.32;30.43;99475.09;5033880;28;20197;-69
2023/06/30 05:42:19;;;;;;;3.13;2.92;;;;;;;34.48;30.37;99470.41;5034288;28;20284;-68
2023/06/30 05:44:46;;;;;;;2.90;2.58;;;;;;;34.45;29.95;99473.91;5034334;28;20657;-69
2023/06/30 05:47:13;;;;;;;3.05;2.50;;;;;;;34.62;29.47;99473.56;5034630;28;20201;-68
2023/06/30 05:49:39;;;;;;;6.05;2.92;;;;;;;34.54;29.68;99471.78;5034382;28;20197;-68
2023/06/30 05:52:08;;;;;;;15.13;2.88;;;;;;;34.62;29.85;99473.56;5034373;28;20193;-68
2023/06/30 05:54:34;;;;;;;2.80;2.60;;;;;;;34.72;29.46;99478.53;5034431;28;20658;-70
2023/06/30 05:57:02;;;;;;;5.65;2.85;;;;;;;34.62;29.89;99468.03;5034665;28;20193;-71
2023/06/30 05:59:30;;;;;;;8.07;3.42;;;;;;;34.71;29.17;99471.44;5034684;28;20197;-72
2023/06/30 06:01:57;;;;;;;4.72;2.83;;;;;;;34.91;29.18;99476.69;5034386;28;20223;-68
2023/06/30 06:04:25;;;;;;;5.22;2.70;;;;;;;34.77;29.60;99469.97;5032909;28;20193;-69
2023/06/30 06:06:51;;;;;;;3.58;2.65;;;;;;;34.73;29.33;99480.13;5033717;28;20601;-68
2023/06/30 06:09:18;;;;;;;3.00;2.80;;;;;;;35.03;28.66;99484.09;5034530;28;20297;-68
2023/06/30 06:11:45;;;;;;;16.45;3.53;;;;;;;35.04;28.75;99469.13;5033636;28;20225;-67
2023/06/30 06:14:13;;;;;;;4.07;2.55;;;;;;;34.77;30.03;99481.03;5032964;28;20193;-66
2023/06/30 06:16:44;;;;;;;10.23;2.95;;;;;;;35.02;29.32;99471.47;5033035;28;20205;-65
2023/06/30 06:19:11;;;;;;;8.30;3.05;;;;;;;34.77;29.72;99475.50;5015428;28;20725;-67
2023/06/30 06:21:37;;;;;;;2.58;2.35;;;;;;;34.97;29.16;99475.28;5026824;28;20673;-66
2023/06/30 06:24:05;;;;;;;9.95;3.50;;;;;;;34.53;29.53;99462.69;5027280;28;20251;-67
2023/06/30 06:26:32;;;;;;;55.20;5.15;;;;;;;34.79;28.74;99470.44;5031220;28;20275;-67
2023/06/30 06:28:58;;;;;;;8.85;2.92;;;;;;;34.89;29.38;99456.13;5031881;28;20624;-67
2023/06/30 06:31:27;;;;;;;5.28;3.10;;;;;;;34.89;29.42;99467.16;5033010;28;20233;-67
2023/06/30 06:33:53;;;;;;;10.68;3.00;;;;;;;34.70;29.58;99476.13;5033995;28;20283;-67
2023/06/30 06:36:21;;;;;;;7.90;2.78;;;;;;;34.76;28.93;99465.63;5033545;28;20686;-67
2023/06/30 06:38:48;;;;;;;5.47;2.72;;;;;;;34.84;28.58;99471.00;5033432;28;20194;-67
2023/06/30 06:41:14;;;;;;;22.13;4.32;;;;;;;34.76;28.37;99463.69;5032276;28;20668;-69
2023/06/30 06:43:42;;;;;;;3.83;3.47;;;;;;;34.66;28.73;99464.19;5033347;28;20193;-67
2023/06/30 06:46:09;;;;;;;4.10;2.83;;;;;;;34.59;27.49;99465.97;5032872;28;20221;-67
2023/06/30 06:48:38;;;;;;;2.80;2.55;;;;;;;34.42;28.35;99458.03;5032989;28;20198;-67
2023/06/30 06:51:04;;;;;;;3.15;2.35;;;;;;;34.40;29.39;99460.34;5032847;28;20294;-64
2023/06/30 06:53:33;;;;;;;2.88;2.15;;;;;;;34.35;28.19;99458.66;5033206;28;20272;-63
2023/06/30 06:56:01;;;;;;;3.53;2.50;;;;;;;34.34;29.58;99450.72;5033318;28;20251;-63
2023/06/30 06:58:30;;;;;;;2.88;2.67;;;;;;;34.23;29.01;99455.94;5031624;28;20193;-62
2023/06/30 07:00:57;;;;;;;2.28;2.13;;;;;;;34.09;28.67;99460.25;5032897;28;20267;-65
2023/06/30 07:03:25;;;;;;;5.50;2.70;;;;;;;34.26;28.57;99459.94;5032672;28;20248;-64
2023/06/30 07:05:55;;;;;;;7.80;2.20;;;;;;;34.37;28.83;99450.03;5032508;28;20669;-64
2023/06/30 07:08:21;;;;;;;3.10;2.90;;;;;;;34.44;27.96;99456.53;5032883;28;20551;-63
2023/06/30 07:10:50;;;;;;;2.88;2.53;;;;;;;34.32;28.70;99455.78;5032557;28;20255;-63
2023/06/30 07:13:18;;;;;;;2.50;2.40;;;;;;;34.09;28.48;99450.00;5032906;28;20193;-66
2023/06/30 07:15:45;;;;;;;29.40;4.68;;;;;;;33.68;29.31;99455.09;5032782;28;20202;-64
2023/06/30 07:18:12;;;;;;;4.57;2.67;;;;;;;33.78;29.20;99451.84;5032446;28;20272;-64
2023/06/30 07:20:38;;;;;;;3.50;2.60;;;;;;;33.78;29.10;99460.91;5032102;28;20205;-65
2023/06/30 07:23:06;;;;;;;3.38;2.50;;;;;;;33.87;28.23;99455.28;5031442;28;20205;-63
2023/06/30 07:25:33;;;;;;;18.40;3.35;;;;;;;33.84;28.70;99448.50;5032152;28;20223;-65
2023/06/30 07:28:00;;;;;;;7.63;3.42;;;;;;;33.94;28.85;99445.28;5031766;28;20193;-65
2023/06/30 07:30:28;;;;;;;3.15;2.45;;;;;;;33.67;29.30;99451.53;5030707;28;20216;-66
2023/06/30 07:32:55;;;;;;;3.00;2.70;;;;;;;33.39;29.61;99441.63;5029880;28;20189;-64
2023/06/30 07:35:23;;;;;;;2.65;2.53;;;;;;;33.37;29.44;99450.22;5030554;28;20197;-64
2023/06/30 07:37:50;;;;;;;2.58;2.40;;;;;;;33.38;29.51;99445.50;5032069;28;20201;-64
2023/06/30 07:40:19;;;;;;;3.83;2.65;;;;;;;33.11;29.94;99445.06;5032039;28;20216;-64
2023/06/30 07:42:45;;;;;;;4.60;2.72;;;;;;;33.19;29.16;99440.56;5030967;28;20193;-64
2023/06/30 07:45:14;;;;;;;3.97;2.78;;;;;;;32.96;29.36;99439.44;5031324;28;20731;-64
2023/06/30 07:47:41;;;;;;;6.88;3.47;;;;;;;33.02;29.89;99438.88;5029686;28;20202;-65
2023/06/30 07:50:11;;;;;;;8.63;2.95;;;;;;;33.24;30.46;99441.13;5032308;28;20190;-65
2023/06/30 07:52:41;;;;;;;2.80;2.50;;;;;;;33.47;29.76;99437.94;5030458;28;20208;-64
2023/06/30 07:55:08;;;;;;;3.92;2.53;;;;;;;33.44;29.95;99436.66;5031656;28;20190;-63
2023/06/30 07:57:36;;;;;;;2.50;2.40;;;;;;;33.45;29.83;99441.03;5031722;28;20251;-64
2023/06/30 08:00:04;;;;;;;14.40;3.10;;;;;;;33.36;28.89;99436.78;5031271;28;20239;-65
2023/06/30 08:02:31;;;;;;;2.85;2.72;;;;;;;33.41;29.60;99440.13;5031194;28;20282;-66
2023/06/30 08:04:57;;;;;;;2.47;2.28;;;;;;;33.42;29.48;99438.16;5031529;28;20189;-65
2023/06/30 08:07:24;;;;;;;5.22;2.42;;;;;;;33.32;28.94;99441.38;5031829;28;20190;-65
2023/06/30 08:09:51;;;;;;;2.55;2.30;;;;;;;33.21;29.06;99432.75;5031596;28;20261;-64
2023/06/30 08:12:17;;;;;;;3.95;2.10;;;;;;;33.12;29.03;99427.38;5031305;28;20221;-65
2023/06/30 08:14:48;;;;;;;2.65;2.35;;;;;;;32.83;29.33;99429.59;5031277;28;20194;-65
2023/06/30 08:17:15;;;;;;;5.10;2.30;;;;;;;32.74;28.53;99426.09;5030907;28;20710;-65
2023/06/30 08:19:41;;;;;;;14.18;3.13;;;;;;;33.04;28.49;99425.53;5031497;28;20201;-68
2023/06/30 08:22:08;;;;;;;3.33;2.70;;;;;;;33.19;28.94;99416.59;5030056;28;20279;-66
2023/06/30 08:24:35;;;;;;;2.50;2.30;;;;;;;33.53;27.70;99420.00;5030768;28;20197;-66
2023/06/30 08:27:02;;;;;;;3.80;2.45;;;;;;;33.75;28.08;99422.19;5031032;28;20665;-67
2023/06/30 08:29:29;;;;;;;2.53;2.33;;;;;;;33.94;26.96;99408.63;5030812;28;20186;-67
2023/06/30 08:31:57;;;;;;;5.72;2.45;;;;;;;33.89;27.33;99406.13;5028885;28;20319;-68
2023/06/30 08:34:23;;;;;;;2.85;2.25;;;;;;;34.02;27.24;99404.91;5030759;28;20201;-68
2023/06/30 08:36:50;;;;;;;4.30;2.25;;;;;;;34.18;27.16;99405.72;5031123;28;20193;-67
2023/06/30 08:39:17;;;;;;;4.55;2.13;;;;;;;34.17;26.69;99401.38;5028150;28;20196;-68
2023/06/30 08:41:44;;;;;;;5.07;2.42;;;;;;;34.41;27.27;99402.03;5030528;28;20251;-67
2023/06/30 08:44:11;;;;;;;7.55;2.25;;;;;;;34.41;26.12;99406.78;5030199;28;20189;-67
2023/06/30 08:46:39;;;;;;;2.17;2.05;;;;;;;34.51;26.16;99397.97;5030632;28;20197;-67
2023/06/30 08:49:07;;;;;;;4.55;2.17;;;;;;;34.51;25.43;99407.06;5029849;28;20263;-69
2023/06/30 08:51:34;;;;;;;2.78;1.80;;;;;;;34.50;25.22;99407.41;5029725;28;20221;-67
2023/06/30 08:54:01;;;;;;;2.58;1.75;;;;;;;33.96;25.22;99395.28;5029460;28;20312;-67
2023/06/30 08:56:28;;;;;;;1.50;1.40;;;;;;;33.56;24.69;99402.78;5029679;28;20719;-67
2023/06/30 08:58:55;;;;;;;6.50;1.60;;;;;;;33.40;25.24;99393.63;5030218;28;20229;-67
2023/06/30 09:01:23;;;;;;;2.70;1.42;;;;;;;33.79;25.26;99388.09;5023520;28;20252;-66
2023/06/30 09:03:49;;;;;;;5.03;1.80;;;;;;;34.00;26.02;99387.91;5030832;28;20685;-68
2023/06/30 09:06:19;;;;;;;9.57;1.65;;;;;;;34.05;25.17;99387.66;5035370;28;20193;-67
2023/06/30 09:08:53;;;;;;;1.42;1.25;;;;;;;33.87;23.52;99387.16;5033887;28;20185;-68
2023/06/30 09:11:24;;;;;;;1.88;0.88;;;;;;;33.48;24.33;99379.72;5035456;28;20227;-68
2023/06/30 09:13:54;;;;;;;3.42;1.50;;;;;;;33.75;24.21;99376.16;5034939;28;20243;-69
2023/06/30 09:16:21;;;;;;;10.43;2.42;;;;;;;33.73;24.49;99374.91;5034030;28;20255;-67
2023/06/30 09:18:48;;;;;;;1.63;1.52;;;;;;;33.39;24.11;99379.03;5034431;28;20201;-67
2023/06/30 09:21:15;;;;;;;4.78;1.65;;;;;;;33.23;25.51;99375.38;5035063;28;20201;-69
2023/06/30 09:23:43;;;;;;;4.18;1.75;;;;;;;32.99;26.19;99373.47;5034526;28;20657;-67
2023/06/30 09:26:14;;;;;;;49.00;4.10;;;;;;;33.15;26.35;99365.28;5034915;28;20189;-67
2023/06/30 09:28:42;;;;;;;2.55;1.55;;;;;;;33.40;25.00;99361.38;5034416;28;20201;-68
2023/06/30 09:31:09;;;;;;;2.40;1.75;;;;;;;33.74;24.28;99357.22;5031953;28;20316;-68
2023/06/30 09:33:38;;;;;;;3.10;1.50;;;;;;;33.85;27.26;99352.84;5033600;28;20198;-69
2023/06/30 09:36:06;;;;;;;2.08;1.85;;;;;;;33.98;26.27;99349.66;5034058;28;20331;-70
2023/06/30 09:38:33;;;;;;;5.40;1.73;;;;;;;33.73;25.10;99341.84;5032139;28;20724;-68
2023/06/30 09:41:06;;;;;;;2.38;1.55;;;;;;;33.90;26.24;99344.31;5031331;28;20251;-70
2023/06/30 09:43:33;;;;;;;5.30;1.90;;;;;;;33.85;24.78;99331.59;5034359;28;20213;-68
2023/06/30 09:46:01;;;;;;;3.63;1.58;;;;;;;33.95;25.12;99335.78;5034681;28;20280;-68
2023/06/30 09:48:30;;;;;;;1.60;1.50;;;;;;;33.83;23.90;99347.69;5034899;28;20194;-68
2023/06/30 09:50:57;;;;;;;1.58;1.52;;;;;;;34.01;23.98;99332.41;5034931;28;20520;-68
2023/06/30 09:53:24;;;;;;;5.50;1.77;;;;;;;33.94;24.70;99334.16;5035036;28;20259;-68
2023/06/30 09:55:52;;;;;;;4.90;2.13;;;;;;;33.53;26.00;99326.31;5033782;28;20255;-70
2023/06/30 09:58:21;;;;;;;6.88;1.58;;;;;;;33.66;25.70;99314.88;5032618;28;20672;-69
2023/06/30 10:00:50;;;;;;;2.13;1.30;;;;;;;33.76;24.98;99319.88;5033973;28;20643;-68
2023/06/30 10:03:18;;;;;;;2.28;1.70;;;;;;;33.70;25.06;99317.72;5034392;28;20263;-68
2023/06/30 10:05:45;;;;;;;4.30;1.75;;;;;;;33.63;25.49;99314.81;5034079;28;20197;-69
2023/06/30 10:08:13;;;;;;;1.90;1.50;;;;;;;33.67;24.87;99321.22;5034283;28;20267;-72
2023/06/30 10:10:42;;;;;;;7.97;2.05;;;;;;;33.72;23.76;99313.47;5032423;28;20189;-72
2023/06/30 10:13:10;;;;;;;2.95;1.33;;;;;;;33.91;24.72;99312.81;5033721;28;20256;-71
2023/06/30 10:15:38;;;;;;;1.60;1.50;;;;;;;33.93;25.34;99307.75;5031385;28;20194;-69
2023/06/30 10:18:09;;;;;;;2.47;1.50;;;;;;;33.85;23.71;99308.72;5033661;28;20197;-64
2023/06/30 10:20:35;;;;;;;1.77;1.40;;;;;;;33.34;25.17;99302.16;5033322;28;20197;-66
2023/06/30 10:23:04;;;;;;;1.58;1.48;;;;;;;32.78;26.71;99298.47;5033468;28;20669;-71
2023/06/30 10:25:32;;;;;;;1.80;1.70;;;;;;;32.24;26.11;99294.34;5032198;28;20193;-69
2023/06/30 10:27:59;;;;;;;1.73;1.27;;;;;;;32.47;26.36;99294.72;5033568;28;20727;-70
2023/06/30 10:30:26;;;;;;;1.40;1.40;;;;;;;32.56;26.18;99293.47;5033372;28;20613;-68
2023/06/30 10:32:54;;;;;;;1.90;1.80;;;;;;;32.66;24.99;99284.72;5033638;28;20742;-67
2023/06/30 10:35:22;;;;;;;1.83;1.60;;;;;;;32.77;24.94;99283.13;5032890;28;20193;-66
2023/06/30 10:37:49;;;;;;;2.08;1.30;;;;;;;32.90;26.12;99276.47;5032321;28;20673;-69
2023/06/30 10:40:26;;;;;;;1.50;1.40;;;;;;;32.87;25.13;99266.16;5033678;28;20251;-68
2023/06/30 10:42:55;;;;;;;1.83;1.73;;;;;;;33.05;25.88;99272.19;5032581;28;20275;-68
2023/06/30 10:45:27;;;;;;;9.20;2.28;;;;;;;33.03;26.29;99263.47;5032871;28;20201;-72
2023/06/30 10:47:55;;;;;;;2.03;1.10;;;;;;;32.75;25.10;99268.88;5013444;28;20190;-70
2023/06/30 10:50:23;;;;;;;3.25;1.10;;;;;;;32.68;27.11;99252.19;5013599;28;20614;-70
2023/06/30 10:52:52;;;;;;;1.42;1.42;;;;;;;32.40;25.07;99272.50;5014103;28;20705;-67
2023/06/30 10:55:22;;;;;;;1.67;1.50;;;;;;;32.15;24.73;99254.38;5032526;28;20730;-66
2023/06/30 10:57:51;;;;;;;1.73;1.37;;;;;;;32.37;25.51;99251.16;5032585;28;20201;-67
2023/06/30 11:00:20;;;;;;;5.38;1.90;;;;;;;32.19;25.25;99256.09;5032629;28;20217;-68
2023/06/30 11:02:50;;;;;;;1.30;1.20;;;;;;;31.69;24.67;99252.00;5032213;28;20724;-66
2023/06/30 11:05:23;;;;;;;2.40;1.47;;;;;;;32.09;25.02;99251.03;5032221;28;20189;-67
2023/06/30 11:07:52;;;;;;;1.37;1.20;;;;;;;32.43;24.97;99250.63;5032994;28;20189;-68
2023/06/30 11:10:45;;;;;;;4.53;1.30;;;;;;;32.30;24.27;99251.75;5031464;28;20198;-69
2023/06/30 11:13:12;;;;;;;4.83;1.60;;;;;;;32.56;24.80;99240.38;5018618;28;20275;-68
2023/06/30 11:15:45;;;;;;;1.65;1.55;;;;;;;32.76;24.92;99240.25;5031898;28;20251;-66
2023/06/30 11:18:13;;;;;;;2.00;1.53;;;;;;;32.67;24.77;99236.03;5032430;28;20243;-69
2023/06/30 11:20:58;;;;;;;2.25;1.52;;;;;;;32.75;25.23;99229.59;5032763;28;20669;-68
2023/06/30 11:23:26;;;;;;;1.40;1.30;;;;;;;32.88;24.92;99229.25;5033046;28;20255;-68
2023/06/30 11:25:56;;;;;;;1.50;1.40;;;;;;;32.85;24.03;99229.13;5033293;28;20197;-66
2023/06/30 11:28:24;;;;;;;1.92;1.27;;;;;;;32.89;24.21;99219.81;5032790;28;20645;-68
2023/06/30 11:30:51;;;;;;;1.60;1.30;;;;;;;33.12;23.84;99220.09;5029798;28;20244;-69
2023/06/30 11:33:18;;;;;;;1.65;1.38;;;;;;;33.17;23.87;99214.31;5032671;28;20271;-68